createdAt,value
2022-10-17T00:01:41.265Z,17.13
2022-10-17T00:04:10.903Z,16.05
2022-10-17T00:06:44.474Z,15.32
2022-10-17T00:09:13.659Z,35.58
2022-10-17T00:11:42.567Z,16.73
2022-10-17T00:14:12.081Z,16.00
2022-10-17T00:16:42.952Z,19.63
2022-10-17T00:19:12.599Z,21.98
2022-10-17T00:21:41.276Z,23.85
2022-10-17T00:24:10.421Z,25.63
2022-10-17T00:26:39.422Z,43.10
2022-10-17T00:29:09.232Z,42.13
2022-10-17T00:31:41.232Z,34.90
2022-10-17T00:34:10.519Z,38.70
2022-10-17T00:36:39.441Z,35.95
2022-10-17T00:39:08.436Z,51.00
2022-10-17T00:41:37.943Z,35.72
2022-10-17T00:44:31.881Z,35.70
2022-10-17T00:47:05.834Z,35.75
2022-10-17T00:49:39.902Z,38.88
2022-10-17T00:52:30.629Z,41.60
2022-10-17T00:55:10.399Z,37.38
2022-10-17T00:57:40.663Z,38.75
2022-10-17T01:00:15.360Z,41.67
2022-10-17T01:02:45.813Z,43.88
2022-10-17T01:05:16.373Z,47.83
2022-10-17T01:07:47.006Z,53.35
2022-10-17T01:10:20.698Z,58.60
2022-10-17T01:13:11.096Z,58.90
2022-10-17T01:16:00.787Z,65.32
2022-10-17T01:18:48.917Z,83.55
2022-10-17T01:21:26.702Z,87.03
2022-10-17T01:24:04.916Z,87.25
2022-10-17T01:26:39.974Z,85.60
2022-10-17T01:29:48.392Z,86.50
2022-10-17T01:32:23.800Z,93.10
2022-10-17T01:35:03.838Z,94.65
2022-10-17T01:38:08.057Z,98.50
2022-10-17T01:41:01.354Z,99.18
2022-10-17T01:43:42.349Z,110.97
2022-10-17T01:46:21.849Z,93.32
2022-10-17T01:48:54.528Z,86.32
2022-10-17T01:51:29.982Z,81.55
2022-10-17T01:54:26.719Z,106.25
2022-10-17T01:57:01.501Z,77.25
2022-10-17T01:59:40.671Z,76.53
2022-10-17T02:02:11.432Z,81.07
2022-10-17T02:04:41.253Z,77.22
2022-10-17T02:07:12.286Z,88.03
2022-10-17T02:09:41.167Z,75.95
2022-10-17T02:12:46.567Z,98.40
2022-10-17T02:15:54.622Z,112.03
2022-10-17T02:19:09.662Z,92.85
2022-10-17T02:21:52.071Z,98.95
2022-10-17T02:24:44.789Z,95.70
2022-10-17T02:27:30.873Z,108.25
2022-10-17T02:30:12.095Z,106.70
2022-10-17T02:32:51.575Z,93.30
2022-10-17T02:35:25.707Z,93.85
2022-10-17T02:37:55.110Z,94.30
2022-10-17T02:40:25.141Z,99.20
2022-10-17T02:42:55.372Z,95.50
2022-10-17T02:45:27.589Z,91.93
2022-10-17T02:48:10.561Z,90.18
2022-10-17T02:51:00.120Z,86.72
2022-10-17T02:53:59.570Z,84.32
2022-10-17T02:56:31.936Z,75.45
2022-10-17T02:59:03.835Z,64.15
2022-10-17T03:01:37.125Z,59.30
2022-10-17T03:04:11.734Z,52.95
2022-10-17T03:06:42.424Z,55.13
2022-10-17T03:09:11.477Z,52.03
2022-10-17T03:11:40.277Z,52.40
2022-10-17T03:14:10.052Z,53.25
2022-10-17T03:16:38.566Z,48.80
2022-10-17T03:19:07.285Z,46.33
2022-10-17T03:21:38.285Z,46.22
2022-10-17T03:24:08.548Z,42.45
2022-10-17T03:26:37.385Z,38.85
2022-10-17T03:29:06.395Z,32.33
2022-10-17T03:31:36.979Z,36.03
2022-10-17T03:34:07.101Z,32.25
2022-10-17T03:36:35.945Z,36.45
2022-10-17T03:39:05.384Z,34.67
2022-10-17T03:41:33.951Z,34.55
2022-10-17T03:44:02.787Z,31.98
2022-10-17T03:46:32.414Z,31.15
2022-10-17T03:49:02.668Z,29.35
2022-10-17T03:51:31.384Z,30.67
2022-10-17T03:54:04.947Z,29.70
2022-10-17T03:56:33.795Z,30.40
2022-10-17T03:59:13.473Z,31.08
2022-10-17T04:01:44.175Z,31.77
2022-10-17T04:04:14.197Z,33.17
2022-10-17T04:06:42.762Z,32.15
2022-10-17T04:09:12.475Z,35.13
2022-10-17T04:11:52.305Z,34.08
2022-10-17T04:14:22.824Z,33.10
2022-10-17T04:16:54.235Z,34.78
2022-10-17T04:19:23.293Z,33.28
2022-10-17T04:21:52.171Z,37.47
2022-10-17T04:24:21.843Z,38.58
2022-10-17T04:26:59.807Z,44.15
2022-10-17T04:29:31.597Z,34.17
2022-10-17T04:32:11.614Z,39.28
2022-10-17T04:34:44.511Z,38.92
2022-10-17T04:37:12.964Z,37.80
2022-10-17T04:39:41.539Z,77.32
2022-10-17T04:42:10.143Z,48.83
2022-10-17T04:44:41.556Z,74.90
2022-10-17T04:47:10.382Z,44.15
2022-10-17T04:52:16.933Z,37.25
2022-10-17T04:54:47.152Z,38.90
2022-10-17T04:57:16.372Z,32.72
2022-10-17T04:59:53.132Z,34.53
2022-10-17T05:02:44.144Z,32.28
2022-10-17T05:05:12.642Z,27.85
2022-10-17T05:07:42.020Z,25.13
2022-10-17T05:10:21.469Z,23.33
2022-10-17T05:12:52.675Z,23.02
2022-10-17T05:15:24.458Z,22.42
2022-10-17T05:17:58.878Z,20.60
2022-10-17T05:20:29.497Z,22.08
2022-10-17T05:23:00.778Z,24.52
2022-10-17T05:25:34.717Z,25.08
2022-10-17T05:28:03.276Z,24.67
2022-10-17T05:30:35.174Z,25.25
2022-10-17T05:33:08.924Z,26.60
2022-10-17T05:35:38.071Z,26.77
2022-10-17T05:38:07.513Z,28.10
2022-10-17T05:40:39.290Z,22.52
2022-10-17T05:43:07.903Z,25.85
2022-10-17T05:45:37.631Z,27.83
2022-10-17T05:48:10.223Z,34.55
2022-10-17T05:50:42.071Z,30.80
2022-10-17T05:53:16.155Z,28.65
2022-10-17T05:56:01.275Z,38.13
2022-10-17T05:58:49.189Z,27.65
2022-10-17T06:01:42.008Z,27.35
2022-10-17T06:04:11.097Z,25.40
2022-10-17T06:06:41.402Z,23.73
2022-10-17T06:09:14.711Z,22.95
2022-10-17T06:11:47.330Z,27.20
2022-10-17T06:14:16.826Z,24.75
2022-10-17T06:16:45.533Z,23.55
2022-10-17T06:19:13.965Z,27.67
2022-10-17T06:21:42.821Z,23.80
2022-10-17T06:24:14.900Z,21.65
2022-10-17T06:26:44.622Z,20.23
2022-10-17T06:29:15.699Z,19.42
2022-10-17T06:31:50.265Z,17.08
2022-10-17T06:34:19.317Z,18.00
2022-10-17T06:36:48.277Z,17.42
2022-10-17T06:39:21.982Z,20.33
2022-10-17T06:42:01.714Z,16.90
2022-10-17T06:44:48.592Z,15.32
2022-10-17T06:47:40.652Z,15.80
2022-10-17T06:50:32.673Z,15.82
2022-10-17T06:53:13.134Z,15.40
2022-10-17T06:56:09.630Z,13.60
2022-10-17T06:59:07.850Z,13.68
2022-10-17T07:01:43.284Z,15.75
2022-10-17T07:04:16.422Z,16.58
2022-10-17T07:06:44.957Z,14.00
2022-10-17T07:09:18.153Z,12.30
2022-10-17T07:11:46.911Z,11.32
2022-10-17T07:14:19.182Z,18.42
2022-10-17T07:16:48.369Z,20.95
2022-10-17T07:19:20.489Z,11.52
2022-10-17T07:21:49.817Z,14.82
2022-10-17T07:24:18.621Z,15.45
2022-10-17T07:26:51.309Z,10.07
2022-10-17T07:29:21.129Z,8.90
2022-10-17T07:32:07.244Z,9.70
2022-10-17T07:34:37.450Z,9.30
2022-10-17T07:37:08.117Z,10.15
2022-10-17T07:39:39.556Z,10.57
2022-10-17T07:42:08.597Z,19.25
2022-10-17T07:44:37.405Z,11.32
2022-10-17T07:47:06.280Z,10.65
2022-10-17T07:49:43.190Z,10.80
2022-10-17T07:52:13.732Z,10.10
2022-10-17T07:54:43.031Z,10.43
2022-10-17T07:57:11.886Z,9.77
2022-10-17T07:59:40.586Z,10.23
2022-10-17T08:02:27.575Z,8.57
2022-10-17T08:04:56.715Z,8.90
2022-10-17T08:07:29.318Z,9.32
2022-10-17T08:09:58.351Z,8.80
2022-10-17T08:12:27.631Z,7.32
2022-10-17T08:14:56.357Z,8.48
2022-10-17T08:17:27.737Z,7.25
2022-10-17T08:19:58.842Z,7.00
2022-10-17T08:22:28.163Z,6.47
2022-10-17T08:24:56.780Z,6.70
2022-10-17T08:27:26.291Z,7.80
2022-10-17T08:29:55.341Z,8.75
2022-10-17T08:32:28.863Z,14.43
2022-10-17T08:34:57.932Z,10.07
2022-10-17T08:37:26.587Z,7.80
2022-10-17T08:39:55.388Z,7.60
2022-10-17T08:42:29.558Z,10.88
2022-10-17T08:45:37.684Z,10.05
2022-10-17T08:48:11.867Z,8.43
2022-10-17T08:50:46.787Z,11.85
2022-10-17T08:53:24.626Z,6.15
2022-10-17T08:55:54.842Z,5.90
2022-10-17T08:58:30.781Z,5.57
2022-10-17T09:01:32.696Z,3.75
2022-10-17T09:04:33.902Z,3.17
2022-10-17T09:07:19.656Z,2.85
2022-10-17T09:09:51.394Z,3.20
2022-10-17T09:12:40.094Z,3.80
2022-10-17T09:15:21.554Z,3.63
2022-10-17T09:18:02.076Z,3.80
2022-10-17T09:20:39.196Z,18.95
2022-10-17T09:23:18.105Z,11.48
2022-10-17T09:25:50.733Z,16.15
2022-10-17T09:28:30.963Z,4.10
2022-10-17T09:31:02.316Z,8.20
2022-10-17T09:33:56.642Z,4.93
2022-10-17T09:36:37.529Z,4.97
2022-10-17T09:39:19.340Z,4.75
2022-10-17T09:41:59.477Z,6.82
2022-10-17T09:44:39.614Z,4.82
2022-10-17T09:47:25.568Z,5.40
2022-10-17T09:49:54.526Z,5.90
2022-10-17T09:52:40.209Z,4.93
2022-10-17T09:55:17.166Z,4.50
2022-10-17T09:57:59.311Z,5.30
2022-10-17T10:00:34.178Z,9.43
2022-10-17T10:06:19.691Z,5.88
2022-10-17T10:08:59.333Z,6.15
2022-10-17T10:12:07.635Z,6.72
2022-10-17T10:14:40.274Z,6.68
2022-10-17T10:17:42.756Z,6.75
2022-10-17T10:20:41.274Z,13.35
2022-10-17T10:23:18.077Z,8.13
2022-10-17T10:25:55.991Z,8.15
2022-10-17T10:28:29.404Z,5.13
2022-10-17T10:31:05.260Z,5.53
2022-10-17T10:33:41.986Z,6.05
2022-10-17T10:36:11.033Z,3.08
2022-10-17T10:38:43.269Z,4.20
2022-10-17T10:41:12.605Z,3.20
2022-10-17T10:43:52.617Z,3.58
2022-10-17T10:46:28.921Z,6.03
2022-10-17T10:49:02.398Z,6.80
2022-10-17T10:51:36.655Z,8.57
2022-10-17T10:54:10.138Z,4.40
2022-10-17T10:56:53.557Z,3.78
2022-10-17T10:59:31.213Z,3.42
2022-10-17T11:02:13.708Z,5.50
2022-10-17T11:05:04.524Z,4.57
2022-10-17T11:07:40.059Z,4.22
2022-10-17T11:10:32.905Z,3.75
2022-10-17T11:13:20.456Z,3.42
2022-10-17T11:16:13.697Z,3.95
2022-10-17T11:19:09.582Z,4.70
2022-10-17T11:24:50.896Z,6.28
2022-10-17T11:27:19.685Z,6.03
2022-10-17T11:29:48.311Z,6.97
2022-10-17T11:32:28.554Z,6.88
2022-10-17T11:35:08.549Z,7.30
2022-10-17T11:37:48.380Z,7.57
2022-10-17T11:40:28.231Z,8.13
2022-10-17T11:43:03.115Z,7.60
2022-10-17T11:48:21.882Z,5.85
2022-10-17T11:54:12.594Z,4.07
2022-10-17T11:56:50.809Z,4.40
2022-10-17T11:59:49.471Z,4.70
2022-10-17T12:02:40.845Z,3.70
2022-10-17T12:05:29.626Z,4.00
2022-10-17T12:08:15.084Z,3.70
2022-10-17T12:10:47.279Z,4.30
2022-10-17T12:13:36.177Z,4.60
2022-10-17T12:16:30.990Z,4.38
2022-10-17T12:19:03.006Z,4.17
2022-10-17T12:22:03.220Z,4.90
2022-10-17T12:24:43.407Z,4.47
2022-10-17T12:27:34.233Z,5.20
2022-10-17T12:30:08.226Z,5.68
2022-10-17T12:33:00.563Z,6.17
2022-10-17T12:35:28.793Z,6.95
2022-10-17T12:37:59.362Z,8.60
2022-10-17T12:40:37.738Z,22.33
2022-10-17T12:43:15.950Z,21.90
2022-10-17T12:45:54.001Z,22.13
2022-10-17T12:48:35.489Z,10.65
2022-10-17T12:51:38.119Z,10.43
2022-10-17T12:54:14.374Z,17.40
2022-10-17T12:56:48.818Z,12.40
2022-10-17T12:59:26.128Z,12.98
2022-10-17T13:01:59.831Z,14.40
2022-10-17T13:04:30.600Z,18.42
2022-10-17T13:07:02.103Z,12.20
2022-10-17T13:09:37.329Z,10.82
2022-10-17T13:12:13.595Z,10.48
2022-10-17T13:14:44.443Z,10.07
2022-10-17T13:17:28.454Z,9.80
2022-10-17T13:19:58.041Z,9.18
2022-10-17T13:22:33.593Z,9.68
2022-10-17T13:25:16.299Z,10.10
2022-10-17T13:27:45.847Z,10.38
2022-10-17T13:30:31.245Z,11.05
2022-10-17T13:33:03.093Z,11.70
2022-10-17T13:35:59.468Z,12.85
2022-10-17T13:38:34.851Z,12.60
2022-10-17T13:41:34.767Z,13.73
2022-10-17T13:44:08.798Z,13.18
2022-10-17T13:46:40.481Z,12.82
2022-10-17T13:49:36.251Z,13.15
2022-10-17T13:52:07.360Z,12.82
2022-10-17T13:54:56.342Z,14.65
2022-10-17T13:57:31.865Z,12.95
2022-10-17T14:00:11.386Z,13.32
2022-10-17T14:02:44.511Z,13.18
2022-10-17T14:05:19.648Z,12.88
2022-10-17T14:08:12.711Z,12.32
2022-10-17T14:10:45.158Z,11.27
2022-10-17T14:13:43.310Z,10.70
2022-10-17T14:16:13.298Z,10.75
2022-10-17T14:18:45.178Z,10.02
2022-10-17T14:24:28.970Z,10.48
2022-10-17T14:27:00.290Z,10.02
2022-10-17T14:29:32.273Z,13.30
2022-10-17T14:32:11.884Z,9.38
2022-10-17T14:34:43.733Z,10.18
2022-10-17T14:37:36.513Z,9.23
2022-10-17T14:40:07.903Z,25.98
2022-10-17T14:42:41.437Z,9.50
2022-10-17T14:45:19.078Z,10.13
2022-10-17T14:47:52.139Z,20.85
2022-10-17T14:50:32.690Z,9.82
2022-10-17T14:53:13.521Z,10.95
2022-10-17T14:55:56.689Z,10.48
2022-10-17T14:58:31.288Z,11.65
2022-10-17T15:01:02.479Z,12.75
2022-10-17T15:03:31.389Z,12.25
2022-10-17T15:06:27.668Z,10.38
2022-10-17T15:08:59.322Z,11.48
2022-10-17T15:11:28.450Z,12.23
2022-10-17T15:13:57.201Z,11.25
2022-10-17T15:16:33.040Z,15.90
2022-10-17T15:19:02.482Z,13.57
2022-10-17T15:21:40.606Z,20.45
2022-10-17T15:24:10.856Z,14.10
2022-10-17T15:26:39.578Z,10.43
2022-10-17T15:29:08.565Z,13.77
2022-10-17T15:31:37.807Z,9.02
2022-10-17T15:34:06.586Z,9.95
2022-10-17T15:36:42.448Z,19.05
2022-10-17T15:39:11.703Z,36.30
2022-10-17T15:41:40.287Z,31.35
2022-10-17T15:44:09.060Z,16.38
2022-10-17T15:46:40.499Z,14.45
2022-10-17T15:49:16.003Z,17.30
2022-10-17T15:51:45.343Z,14.15
2022-10-17T15:54:17.198Z,10.82
2022-10-17T15:56:53.982Z,9.80
2022-10-17T15:59:27.502Z,10.90
2022-10-17T16:01:56.264Z,8.40
2022-10-17T16:04:27.687Z,10.27
2022-10-17T16:06:56.677Z,8.38
2022-10-17T16:09:25.997Z,7.30
2022-10-17T16:11:54.865Z,7.95
2022-10-17T16:14:23.642Z,7.10
2022-10-17T16:16:52.645Z,7.40
2022-10-17T16:19:22.595Z,8.23
2022-10-17T16:21:51.431Z,7.45
2022-10-17T16:24:20.367Z,8.60
2022-10-17T16:26:49.305Z,8.57
2022-10-17T16:29:18.534Z,7.57
2022-10-17T16:31:47.239Z,8.30
2022-10-17T16:34:17.222Z,7.40
2022-10-17T16:36:46.774Z,6.97
2022-10-17T16:39:15.652Z,6.45
2022-10-17T16:41:44.510Z,7.53
2022-10-17T16:44:15.537Z,6.43
2022-10-17T16:46:44.264Z,19.63
2022-10-17T16:49:13.443Z,7.85
2022-10-17T16:51:42.172Z,6.30
2022-10-17T16:54:11.915Z,5.72
2022-10-17T16:56:45.643Z,10.32
2022-10-17T16:59:14.625Z,5.90
2022-10-17T17:01:43.531Z,6.28
2022-10-17T17:04:12.546Z,8.48
2022-10-17T17:06:41.355Z,10.90
2022-10-17T17:09:13.031Z,7.03
2022-10-17T17:11:41.789Z,8.02
2022-10-17T17:14:11.510Z,9.05
2022-10-17T17:16:40.521Z,7.57
2022-10-17T17:19:13.498Z,13.88
2022-10-17T17:21:52.722Z,89.18
2022-10-17T17:24:22.523Z,6.93
2022-10-17T17:26:53.684Z,6.35
2022-10-17T17:29:23.418Z,6.82
2022-10-17T17:31:52.919Z,8.30
2022-10-17T17:34:21.800Z,25.95
2022-10-17T17:36:50.754Z,7.45
2022-10-17T17:39:19.396Z,19.08
2022-10-17T17:41:51.445Z,7.75
2022-10-17T17:44:20.590Z,8.02
2022-10-17T17:46:50.350Z,7.78
2022-10-17T17:49:19.369Z,24.73
2022-10-17T17:51:48.195Z,7.32
2022-10-17T17:54:17.069Z,15.45
2022-10-17T17:56:45.841Z,9.15
2022-10-17T17:59:14.814Z,7.57
2022-10-17T18:01:44.703Z,8.60
2022-10-17T18:04:13.911Z,10.05
2022-10-17T18:06:43.166Z,8.48
2022-10-17T18:09:12.095Z,11.63
2022-10-17T18:11:41.004Z,8.30
2022-10-17T18:14:14.206Z,8.82
2022-10-17T18:16:43.111Z,8.70
2022-10-17T18:19:12.741Z,8.18
2022-10-17T18:21:41.767Z,7.32
2022-10-17T18:24:11.359Z,17.67
2022-10-17T18:26:41.810Z,8.57
2022-10-17T18:29:11.911Z,7.53
2022-10-17T18:31:42.946Z,10.20
2022-10-17T18:34:14.487Z,9.75
2022-10-17T18:36:43.450Z,9.90
2022-10-17T18:39:12.115Z,8.38
2022-10-17T18:41:41.261Z,8.25
2022-10-17T18:44:13.494Z,16.45
2022-10-17T18:46:42.470Z,12.18
2022-10-17T18:49:13.996Z,9.70
2022-10-17T18:51:43.467Z,8.57
2022-10-17T18:54:21.148Z,15.65
2022-10-17T18:56:54.219Z,10.13
2022-10-17T18:59:23.763Z,16.00
2022-10-17T19:01:52.725Z,8.65
2022-10-17T19:04:21.854Z,8.52
2022-10-17T19:06:51.226Z,10.82
2022-10-17T19:09:20.478Z,14.38
2022-10-17T19:11:49.222Z,8.40
2022-10-17T19:14:18.729Z,8.30
2022-10-17T19:16:49.575Z,9.02
2022-10-17T19:19:20.194Z,8.75
2022-10-17T19:21:49.837Z,8.57
2022-10-17T19:24:23.997Z,10.45
2022-10-17T19:26:54.595Z,12.38
2022-10-17T19:29:26.896Z,8.57
2022-10-17T19:31:59.057Z,8.57
2022-10-17T19:34:28.694Z,9.15
2022-10-17T19:36:57.292Z,11.02
2022-10-17T19:39:27.336Z,13.93
2022-10-17T19:41:56.952Z,12.18
2022-10-17T19:44:25.883Z,8.98
2022-10-17T19:46:55.083Z,22.15
2022-10-17T19:49:23.891Z,17.00
2022-10-17T19:51:52.573Z,24.60
2022-10-17T19:54:21.680Z,10.45
2022-10-17T19:56:50.956Z,33.38
2022-10-17T19:59:20.047Z,7.90
2022-10-17T20:01:49.054Z,17.92
2022-10-17T20:04:17.950Z,7.15
2022-10-17T20:06:46.874Z,13.32
2022-10-17T20:09:17.218Z,7.20
2022-10-17T20:11:46.412Z,16.65
2022-10-17T20:14:14.992Z,7.10
2022-10-17T20:16:45.598Z,11.32
2022-10-17T20:19:15.978Z,6.80
2022-10-17T20:21:45.281Z,9.88
2022-10-17T20:24:17.595Z,8.05
2022-10-17T20:26:46.710Z,6.20
2022-10-17T20:29:21.981Z,6.20
2022-10-17T20:31:51.426Z,8.95
2022-10-17T20:34:20.865Z,13.13
2022-10-17T20:36:50.683Z,7.03
2022-10-17T20:39:21.468Z,6.90
2022-10-17T20:41:50.276Z,7.47
2022-10-17T20:44:19.571Z,12.73
2022-10-17T20:47:01.088Z,6.90
2022-10-17T20:49:31.891Z,8.02
2022-10-17T20:52:04.440Z,7.25
2022-10-17T20:54:33.182Z,6.28
2022-10-17T20:57:04.799Z,9.02
2022-10-17T20:59:36.872Z,6.43
2022-10-17T21:02:07.442Z,6.22
2022-10-17T21:04:51.476Z,10.68
2022-10-17T21:09:53.246Z,7.03
2022-10-17T21:12:31.159Z,7.03
2022-10-17T21:15:11.110Z,6.80
2022-10-17T21:17:40.391Z,6.03
2022-10-17T21:20:10.302Z,6.25
2022-10-17T21:22:39.401Z,6.22
2022-10-17T21:25:10.721Z,7.00
2022-10-17T21:27:39.547Z,6.32
2022-10-17T21:32:57.535Z,8.50
2022-10-17T21:35:26.357Z,23.17
2022-10-17T21:37:55.362Z,7.22
2022-10-17T21:40:24.248Z,6.47
2022-10-17T21:42:53.196Z,7.05
2022-10-17T21:45:25.797Z,11.63
2022-10-17T21:48:12.222Z,7.72
2022-10-17T21:50:42.354Z,7.20
2022-10-17T21:53:11.639Z,7.60
2022-10-17T21:55:40.610Z,6.65
2022-10-17T21:58:09.762Z,6.28
2022-10-17T22:00:38.617Z,8.98
2022-10-17T22:03:08.089Z,14.68
2022-10-17T22:05:36.782Z,7.00
2022-10-17T22:08:06.875Z,6.70
2022-10-17T22:10:38.604Z,7.50
2022-10-17T22:13:07.478Z,6.80
2022-10-17T22:15:36.358Z,6.82
2022-10-17T22:18:05.467Z,7.93
2022-10-17T22:20:35.892Z,8.30
2022-10-17T22:23:04.832Z,6.70
2022-10-17T22:25:33.639Z,7.30
2022-10-17T22:28:02.594Z,7.93
2022-10-17T22:30:31.150Z,7.80
2022-10-17T22:32:59.955Z,8.38
2022-10-17T22:35:28.904Z,8.27
2022-10-17T22:37:57.490Z,8.30
2022-10-17T22:40:26.616Z,7.60
2022-10-17T22:42:55.753Z,7.90
2022-10-17T22:45:24.461Z,11.40
2022-10-17T22:47:54.743Z,7.68
2022-10-17T22:50:24.035Z,8.60
2022-10-17T22:52:53.101Z,8.88
2022-10-17T22:55:22.041Z,8.32
2022-10-17T22:57:50.816Z,9.60
2022-10-17T23:00:19.641Z,8.23
2022-10-17T23:02:48.420Z,8.98
2022-10-17T23:05:17.451Z,8.90
2022-10-17T23:07:46.347Z,8.35
2022-10-17T23:10:15.148Z,8.75
2022-10-17T23:12:44.348Z,8.15
2022-10-17T23:15:13.104Z,8.23
2022-10-17T23:17:41.934Z,8.30
2022-10-17T23:20:10.794Z,8.38
2022-10-17T23:22:39.701Z,7.95
2022-10-17T23:25:08.981Z,7.38
2022-10-17T23:27:38.259Z,7.55
2022-10-17T23:30:07.769Z,7.60
2022-10-17T23:32:36.709Z,7.90
2022-10-17T23:35:06.197Z,8.13
2022-10-17T23:37:36.351Z,7.65
2022-10-17T23:40:07.165Z,8.02
2022-10-17T23:42:35.856Z,8.30
2022-10-17T23:45:05.061Z,8.43
2022-10-17T23:47:34.257Z,8.18
2022-10-17T23:50:03.348Z,7.93
2022-10-17T23:52:32.310Z,7.53
2022-10-17T23:55:01.658Z,8.02
2022-10-17T23:57:30.635Z,7.68
2022-10-17T23:59:59.420Z,7.72
